Pazardzhik, Bulgaria
Current Conditions -  °F | °C
As of 12:00 PM on Wednesday 28 Jan 2015 (Local Time) from LBPD Reporting Station
Overcast Overcast  
Wind Chill: 36°   Ceiling: 6800
Heat Index: 43°   Visibility: 6mi
Dew Point: 36°   Wind: 14mph
Humidity: 76%   Direction: 280°W
Pressure: 29.85"   Gusts: NA
Location:  42.2°N, 24.34°E
Report Text: LBPD 280900Z 28012KT 9999 OVC068 06/02 Q1011 NOSIG
Loading
Personal Weather Stations






























Interactive Weather Map New forecast layout! Learn more

10-Day Weather Forecast

Advertisements
Track Severe Weather on mobile